createdAt,value
2022-11-24T00:01:12.564Z,97960.22
2022-11-24T00:03:39.308Z,97971.09
2022-11-24T00:06:10.976Z,97979.50
2022-11-24T00:08:39.875Z,97987.94
2022-11-24T00:11:10.860Z,97984.94
2022-11-24T00:13:40.818Z,97993.13
2022-11-24T00:16:11.927Z,97986.88
2022-11-24T00:18:40.957Z,97992.81
2022-11-24T00:21:08.262Z,98008.09
2022-11-24T00:23:35.564Z,98014.56
2022-11-24T00:26:22.430Z,98021.66
2022-11-24T00:28:55.551Z,98031.16
2022-11-24T00:31:25.073Z,98037.41
2022-11-24T00:33:54.079Z,98043.63
2022-11-24T00:36:23.083Z,98044.97
2022-11-24T00:39:01.428Z,98044.41
2022-11-24T00:41:29.204Z,98067.25
2022-11-24T00:43:56.272Z,98058.47
2022-11-24T00:46:24.173Z,98066.34
2022-11-24T00:48:51.438Z,98064.94
2022-11-24T00:51:19.526Z,98070.38
2022-11-24T00:53:46.188Z,98072.56
2022-11-24T00:56:13.384Z,98079.31
2022-11-24T00:58:40.507Z,98097.53
2022-11-24T01:01:11.376Z,98100.75
2022-11-24T01:03:38.458Z,98100.69
2022-11-24T01:06:14.096Z,98116.44
2022-11-24T01:08:41.953Z,98121.06
2022-11-24T01:11:11.048Z,98121.94
2022-11-24T01:13:38.769Z,98120.34
2022-11-24T01:16:05.786Z,98127.94
2022-11-24T01:18:32.655Z,98123.59
2022-11-24T01:21:08.621Z,98125.19
2022-11-24T01:23:36.914Z,98119.75
2022-11-24T01:26:08.429Z,98123.56
2022-11-24T01:28:35.402Z,98130.63
2022-11-24T01:31:04.637Z,98126.81
2022-11-24T01:33:31.646Z,98126.81
2022-11-24T01:35:59.335Z,98135.56
2022-11-24T01:38:26.856Z,98142.63
2022-11-24T01:41:07.209Z,98138.59
2022-11-24T01:43:33.981Z,98135.59
2022-11-24T01:46:27.900Z,98130.13
2022-11-24T01:49:14.718Z,98148.28
2022-11-24T01:51:51.925Z,98148.50
2022-11-24T01:54:36.490Z,98156.38
2022-11-24T01:57:14.220Z,98180.81
2022-11-24T01:59:41.354Z,98181.69
2022-11-24T02:02:09.011Z,98191.75
2022-11-24T02:04:37.144Z,98182.81
2022-11-24T02:07:06.971Z,98189.91
2022-11-24T02:09:37.751Z,98189.31
2022-11-24T02:12:06.210Z,98195.50
2022-11-24T02:14:35.649Z,98186.00
2022-11-24T02:17:02.520Z,98185.41
2022-11-24T02:20:07.429Z,98186.00
2022-11-24T02:22:59.567Z,98190.84
2022-11-24T02:25:34.957Z,98201.16
2022-11-24T02:28:05.410Z,98212.34
2022-11-24T02:30:32.306Z,98212.56
2022-11-24T02:32:59.241Z,98210.72
2022-11-24T02:35:27.742Z,98215.88
2022-11-24T02:37:54.715Z,98209.84
2022-11-24T02:40:25.469Z,98215.28
2022-11-24T02:42:56.637Z,98217.78
2022-11-24T02:45:24.366Z,98231.09
2022-11-24T02:47:51.018Z,98243.03
2022-11-24T02:50:17.679Z,98237.59
2022-11-24T02:52:44.349Z,98239.75
2022-11-24T02:55:11.115Z,98238.69
2022-11-24T02:57:37.792Z,98251.44
2022-11-24T03:00:05.061Z,98250.69
2022-11-24T03:02:31.844Z,98258.59
2022-11-24T03:04:58.681Z,98251.50
2022-11-24T03:07:25.423Z,98249.63
2022-11-24T03:09:52.049Z,98257.22
2022-11-24T03:12:18.843Z,98245.88
2022-11-24T03:14:45.455Z,98255.91
2022-11-24T03:17:12.843Z,98253.47
2022-11-24T03:19:39.494Z,98258.38
2022-11-24T03:22:06.247Z,98265.47
2022-11-24T03:24:33.239Z,98271.47
2022-11-24T03:27:00.217Z,98276.91
2022-11-24T03:29:26.913Z,98281.25
2022-11-24T03:31:53.599Z,98279.94
2022-11-24T03:34:20.290Z,98283.72
2022-11-24T03:36:47.082Z,98283.47
2022-11-24T03:39:14.023Z,98285.03
2022-11-24T03:41:40.662Z,98290.47
2022-11-24T03:44:07.298Z,98291.06
2022-11-24T03:46:33.968Z,98295.41
2022-11-24T03:49:00.708Z,98294.28
2022-11-24T03:51:27.352Z,98295.09
2022-11-24T03:53:53.972Z,98300.78
2022-11-24T03:56:20.721Z,98307.88
2022-11-24T03:58:47.362Z,98304.56
2022-11-24T04:01:14.122Z,98305.09
2022-11-24T04:03:40.905Z,98308.84
2022-11-24T04:06:07.523Z,98320.56
2022-11-24T04:08:34.186Z,98323.28
2022-11-24T04:11:00.983Z,98330.84
2022-11-24T04:13:28.733Z,98333.84
2022-11-24T04:15:55.440Z,98333.84
2022-11-24T04:18:23.035Z,98339.81
2022-11-24T04:20:51.091Z,98340.34
2022-11-24T04:23:18.558Z,98340.91
2022-11-24T04:25:47.578Z,98340.84
2022-11-24T04:28:14.231Z,98344.38
2022-11-24T04:30:44.849Z,98352.19
2022-11-24T04:33:12.378Z,98345.69
2022-11-24T04:35:38.979Z,98356.56
2022-11-24T04:38:05.661Z,98340.78
2022-11-24T04:40:32.348Z,98351.38
2022-11-24T04:42:59.047Z,98353.28
2022-11-24T04:45:25.806Z,98352.72
2022-11-24T04:47:52.435Z,98356.47
2022-11-24T04:50:19.080Z,98360.28
2022-11-24T04:52:46.019Z,98355.59
2022-11-24T04:55:12.659Z,98358.00
2022-11-24T04:57:39.574Z,98362.88
2022-11-24T05:00:07.541Z,98359.56
2022-11-24T05:02:34.194Z,98367.16
2022-11-24T05:05:00.913Z,98373.88
2022-11-24T05:07:27.639Z,98379.84
2022-11-24T05:10:12.636Z,98382.78
2022-11-24T05:12:39.589Z,98393.34
2022-11-24T05:15:06.943Z,98390.63
2022-11-24T05:17:35.937Z,98396.53
2022-11-24T05:20:03.687Z,98383.28
2022-11-24T05:22:30.416Z,98382.47
2022-11-24T05:24:57.316Z,98386.75
2022-11-24T05:27:24.208Z,98393.06
2022-11-24T05:29:50.827Z,98384.66
2022-11-24T05:32:17.480Z,98394.56
2022-11-24T05:34:44.075Z,98392.75
2022-11-24T05:37:10.670Z,98396.09
2022-11-24T05:39:37.466Z,98394.28
2022-11-24T05:42:25.393Z,98404.91
2022-11-24T05:44:52.857Z,98405.44
2022-11-24T05:47:20.430Z,98406.31
2022-11-24T05:49:47.498Z,98408.16
2022-11-24T05:52:14.422Z,98418.00
2022-11-24T05:54:41.090Z,98422.34
2022-11-24T05:57:07.730Z,98430.56
2022-11-24T05:59:34.362Z,98427.09
2022-11-24T06:02:01.157Z,98430.47
2022-11-24T06:04:27.911Z,98420.22
2022-11-24T06:06:54.595Z,98420.88
2022-11-24T06:09:21.318Z,98420.13
2022-11-24T06:11:48.613Z,98423.47
2022-11-24T06:14:15.373Z,98423.28
2022-11-24T06:16:42.147Z,98427.38
2022-11-24T06:19:10.701Z,98426.88
2022-11-24T06:21:37.636Z,98422.59
2022-11-24T06:24:05.540Z,98414.75
2022-11-24T06:26:33.283Z,98410.69
2022-11-24T06:28:59.937Z,98420.00
2022-11-24T06:31:26.800Z,98422.47
2022-11-24T06:33:53.714Z,98422.53
2022-11-24T06:36:20.512Z,98425.03
2022-11-24T06:38:47.172Z,98427.00
2022-11-24T06:41:16.000Z,98421.59
2022-11-24T06:43:43.077Z,98427.38
2022-11-24T06:46:09.847Z,98426.88
2022-11-24T06:48:36.742Z,98428.50
2022-11-24T06:51:08.684Z,98428.50
2022-11-24T06:53:38.358Z,98426.03
2022-11-24T06:56:15.833Z,98448.31
2022-11-24T06:58:48.181Z,98428.41
2022-11-24T07:01:25.972Z,98437.31
2022-11-24T07:03:54.007Z,98442.50
2022-11-24T07:06:21.805Z,98445.50
2022-11-24T07:08:49.490Z,98440.03
2022-11-24T07:11:19.035Z,98444.09
2022-11-24T07:13:46.586Z,98446.75
2022-11-24T07:16:19.288Z,98441.81
2022-11-24T07:18:47.547Z,98444.22
2022-11-24T07:21:14.733Z,98452.06
2022-11-24T07:23:41.776Z,98450.09
2022-11-24T07:26:09.855Z,98460.16
2022-11-24T07:28:37.606Z,98454.41
2022-11-24T07:31:08.833Z,98454.63
2022-11-24T07:33:36.015Z,98447.25
2022-11-24T07:36:03.972Z,98440.44
2022-11-24T07:38:31.767Z,98442.81
2022-11-24T07:41:03.652Z,98439.28
2022-11-24T07:43:35.530Z,98440.91
2022-11-24T07:46:02.913Z,98440.59
2022-11-24T07:48:30.180Z,98433.34
2022-11-24T07:51:01.002Z,98427.09
2022-11-24T07:53:28.697Z,98445.38
2022-11-24T07:56:00.517Z,98425.81
2022-11-24T07:58:33.246Z,98431.84
2022-11-24T08:01:00.911Z,98435.44
2022-11-24T08:03:27.795Z,98442.28
2022-11-24T08:08:47.898Z,98446.09
2022-11-24T08:11:16.868Z,98449.66
2022-11-24T08:13:44.120Z,98454.34
2022-11-24T08:16:13.613Z,98452.19
2022-11-24T08:18:40.938Z,98460.09
2022-11-24T08:21:11.832Z,98448.97
2022-11-24T08:23:42.202Z,98448.69
2022-11-24T08:26:13.783Z,98449.03
2022-11-24T08:28:41.033Z,98450.16
2022-11-24T08:31:10.594Z,98435.78
2022-11-24T08:33:37.927Z,98436.09
2022-11-24T08:36:10.296Z,98439.38
2022-11-24T08:38:37.362Z,98445.38
2022-11-24T08:41:08.434Z,98439.13
2022-11-24T08:43:35.376Z,98447.59
2022-11-24T08:46:04.913Z,98441.59
2022-11-24T08:48:32.206Z,98440.00
2022-11-24T08:50:59.799Z,98439.19
2022-11-24T08:53:26.476Z,98431.31
2022-11-24T08:55:53.229Z,98428.59
2022-11-24T08:58:19.922Z,98425.38
2022-11-24T09:00:55.198Z,98416.72
2022-11-24T09:03:22.174Z,98415.09
2022-11-24T09:05:52.929Z,98406.69
2022-11-24T09:08:20.726Z,98397.16
2022-11-24T09:10:47.446Z,98397.22
2022-11-24T09:13:14.141Z,98394.84
2022-11-24T09:15:40.770Z,98386.44
2022-11-24T09:18:07.413Z,98386.47
2022-11-24T09:20:35.008Z,98391.38
2022-11-24T09:23:02.912Z,98391.94
2022-11-24T09:25:29.559Z,98374.00
2022-11-24T09:27:57.203Z,98369.13
2022-11-24T09:30:24.002Z,98358.00
2022-11-24T09:32:50.663Z,98368.13
2022-11-24T09:35:18.080Z,98355.63
2022-11-24T09:37:45.783Z,98357.25
2022-11-24T09:40:14.773Z,98356.19
2022-11-24T09:42:50.664Z,98352.41
2022-11-24T09:46:04.371Z,98345.94
2022-11-24T09:48:57.043Z,98340.00
2022-11-24T09:51:28.846Z,98335.69
2022-11-24T09:54:35.876Z,98336.28
2022-11-24T09:57:06.370Z,98330.91
2022-11-24T09:59:33.343Z,98340.53
2022-11-24T10:02:00.344Z,98326.63
2022-11-24T10:04:40.112Z,98325.84
2022-11-24T10:07:22.771Z,98321.75
2022-11-24T10:10:07.582Z,98317.69
2022-11-24T10:12:43.541Z,98308.13
2022-11-24T10:15:37.397Z,98313.63
2022-11-24T10:18:22.312Z,98301.31
2022-11-24T10:21:05.622Z,98296.97
2022-11-24T10:23:47.411Z,98304.59
2022-11-24T10:26:35.821Z,98298.31
2022-11-24T10:29:15.173Z,98294.75
2022-11-24T10:31:43.719Z,98293.41
2022-11-24T10:34:45.562Z,98287.41
2022-11-24T10:37:36.241Z,98278.13
2022-11-24T10:40:56.425Z,98274.28
2022-11-24T10:43:13.053Z,98268.28
2022-11-24T10:45:42.305Z,98267.69
2022-11-24T10:48:22.226Z,98258.97
2022-11-24T10:50:49.113Z,98252.94
2022-11-24T10:53:28.229Z,98249.09
2022-11-24T10:56:16.450Z,98237.34
2022-11-24T10:58:43.116Z,98226.41
2022-11-24T11:01:12.869Z,98228.31
2022-11-24T11:03:57.637Z,98227.47
2022-11-24T11:06:28.870Z,98218.72
2022-11-24T11:09:08.573Z,98213.53
2022-11-24T11:11:37.025Z,98204.22
2022-11-24T11:14:10.622Z,98199.81
2022-11-24T11:16:46.556Z,98202.53
2022-11-24T11:19:58.551Z,98196.50
2022-11-24T11:22:23.895Z,98176.78
2022-11-24T11:25:04.470Z,98177.34
2022-11-24T11:27:32.202Z,98187.44
2022-11-24T11:36:11.294Z,98150.66
2022-11-24T11:38:41.031Z,98132.28
2022-11-24T11:41:19.328Z,98126.50
2022-11-24T11:43:50.601Z,98126.72
2022-11-24T11:46:17.537Z,98114.59
2022-11-24T11:48:48.165Z,98106.34
2022-11-24T11:51:34.256Z,98101.88
2022-11-24T11:54:17.247Z,98096.34
2022-11-24T11:56:45.891Z,98087.47
2022-11-24T11:59:42.971Z,98082.47
2022-11-24T12:02:18.986Z,98073.41
2022-11-24T12:04:48.679Z,98086.53
2022-11-24T12:07:36.803Z,98080.75
2022-11-24T12:10:36.815Z,98072.47
2022-11-24T12:13:28.751Z,98066.41
2022-11-24T12:15:59.319Z,98064.13
2022-11-24T12:18:56.641Z,98060.00
2022-11-24T12:21:32.020Z,98053.94
2022-11-24T12:24:35.932Z,98066.97
2022-11-24T12:27:46.523Z,98050.63
2022-11-24T12:30:18.470Z,98042.06
2022-11-24T12:32:51.221Z,98029.75
2022-11-24T12:35:29.886Z,98026.50
2022-11-24T12:38:14.035Z,98026.78
2022-11-24T12:44:41.304Z,98007.44
2022-11-24T12:47:16.927Z,98002.47
2022-11-24T12:50:01.987Z,97995.38
2022-11-24T12:52:35.124Z,97975.47
2022-11-24T12:55:04.748Z,97986.19
2022-11-24T12:57:41.280Z,97971.94
2022-11-24T13:00:16.101Z,97969.00
2022-11-24T13:02:54.201Z,97973.38
2022-11-24T13:05:35.750Z,97965.22
2022-11-24T13:08:04.423Z,97958.09
2022-11-24T13:10:55.224Z,97965.22
2022-11-24T13:13:27.484Z,97960.63
2022-11-24T13:18:49.504Z,97953.56
2022-11-24T13:21:31.052Z,97954.69
2022-11-24T13:23:59.923Z,97950.91
2022-11-24T13:26:43.789Z,97935.34
2022-11-24T13:29:28.838Z,97941.13
2022-11-24T13:32:17.760Z,97940.09
2022-11-24T13:34:45.702Z,97928.16
2022-11-24T13:37:34.602Z,97931.47
2022-11-24T13:40:31.738Z,97903.66
2022-11-24T13:43:01.206Z,97905.56
2022-11-24T13:45:40.678Z,97902.84
2022-11-24T13:48:21.370Z,97890.84
2022-11-24T13:50:51.575Z,97889.19
2022-11-24T13:53:45.775Z,97892.47
2022-11-24T13:56:12.406Z,97879.34
2022-11-24T13:58:52.376Z,97883.50
2022-11-24T14:01:20.360Z,97873.66
2022-11-24T14:04:33.076Z,97890.03
2022-11-24T14:07:09.221Z,97890.84
2022-11-24T14:09:50.170Z,97870.25
2022-11-24T14:12:23.893Z,97889.44
2022-11-24T14:14:52.963Z,97890.03
2022-11-24T14:17:28.500Z,97886.75
2022-11-24T14:19:57.197Z,97939.56
2022-11-24T14:22:36.637Z,98016.75
2022-11-24T14:25:04.160Z,98025.28
2022-11-24T14:27:34.952Z,98022.53
2022-11-24T14:30:32.097Z,98008.47
2022-11-24T14:33:01.598Z,98012.88
2022-11-24T14:35:42.593Z,98008.22
2022-11-24T14:38:12.588Z,97998.16
2022-11-24T14:40:51.865Z,98000.03
2022-11-24T14:43:24.547Z,97988.84
2022-11-24T14:45:58.237Z,97993.75
2022-11-24T14:48:36.161Z,98001.66
2022-11-24T14:51:31.426Z,97998.09
2022-11-24T14:54:01.363Z,97991.03
2022-11-24T14:56:57.276Z,97972.44
2022-11-24T14:59:27.170Z,97980.63
2022-11-24T15:01:54.445Z,97990.44
2022-11-24T15:04:54.824Z,97968.66
2022-11-24T15:07:31.881Z,97971.41
2022-11-24T15:10:00.802Z,97986.41
2022-11-24T15:12:31.518Z,97974.41
2022-11-24T15:15:02.651Z,97988.31
2022-11-24T15:17:30.414Z,97984.75
2022-11-24T15:20:20.621Z,97988.81
2022-11-24T15:22:47.218Z,97983.91
2022-11-24T15:25:32.773Z,97996.97
2022-11-24T15:28:00.704Z,97999.16
2022-11-24T15:30:28.592Z,98008.72
2022-11-24T15:32:58.044Z,98008.44
2022-11-24T15:35:26.917Z,98013.34
2022-11-24T15:37:53.676Z,98002.41
2022-11-24T15:40:20.686Z,98004.88
2022-11-24T15:42:52.395Z,98012.81
2022-11-24T15:45:20.559Z,98011.72
2022-11-24T15:47:47.735Z,98014.19
2022-11-24T15:50:15.021Z,98008.50
2022-11-24T15:52:44.193Z,98017.22
2022-11-24T15:55:20.991Z,98016.16
2022-11-24T15:57:48.934Z,98002.78
2022-11-24T16:00:18.352Z,98010.69
2022-11-24T16:02:45.318Z,97998.97
2022-11-24T16:05:14.563Z,97996.53
2022-11-24T16:07:42.205Z,97994.88
2022-11-24T16:10:22.048Z,98003.59
2022-11-24T16:12:48.895Z,98002.50
2022-11-24T16:15:15.700Z,98005.22
2022-11-24T16:17:42.303Z,98018.88
2022-11-24T16:20:09.380Z,98027.06
2022-11-24T16:22:36.041Z,98039.34
2022-11-24T16:25:04.210Z,98046.72
2022-11-24T16:27:31.639Z,98051.91
2022-11-24T16:29:58.375Z,98057.66
2022-11-24T16:32:25.604Z,98071.28
2022-11-24T16:34:52.867Z,98074.00
2022-11-24T16:37:22.489Z,98081.66
2022-11-24T16:39:50.350Z,98076.19
2022-11-24T16:42:17.550Z,98081.34
2022-11-24T16:44:44.234Z,98084.38
2022-11-24T16:47:12.924Z,98101.56
2022-11-24T16:49:39.817Z,98100.47
2022-11-24T16:52:08.581Z,98104.84
2022-11-24T16:54:35.319Z,98105.66
2022-11-24T16:57:02.342Z,98105.94
2022-11-24T16:59:28.977Z,98114.94
2022-11-24T17:01:55.788Z,98111.13
2022-11-24T17:04:22.530Z,98118.75
2022-11-24T17:06:49.164Z,98118.22
2022-11-24T17:09:18.977Z,98121.22
2022-11-24T17:11:45.721Z,98129.13
2022-11-24T17:14:12.749Z,98122.56
2022-11-24T17:16:39.660Z,98129.94
2022-11-24T17:19:06.325Z,98126.13
2022-11-24T17:21:33.227Z,98131.00
2022-11-24T17:24:02.976Z,98124.19
2022-11-24T17:26:29.695Z,98134.00
2022-11-24T17:28:56.970Z,98128.84
2022-11-24T17:31:26.293Z,98143.81
2022-11-24T17:33:55.399Z,98131.56
2022-11-24T17:36:22.860Z,98142.19
2022-11-24T17:38:49.652Z,98144.91
2022-11-24T17:41:21.352Z,98141.06
2022-11-24T17:43:53.243Z,98149.78
2022-11-24T17:46:20.207Z,98153.03
2022-11-24T17:48:47.163Z,98154.69
2022-11-24T17:51:19.264Z,98160.13
2022-11-24T17:53:49.307Z,98175.69
2022-11-24T17:56:18.592Z,98166.66
2022-11-24T17:58:45.326Z,98166.13
2022-11-24T18:01:14.817Z,98171.59
2022-11-24T18:03:42.316Z,98171.56
2022-11-24T18:06:13.096Z,98182.47
2022-11-24T18:08:42.595Z,98181.91
2022-11-24T18:11:12.934Z,98180.81
2022-11-24T18:13:56.657Z,98193.34
2022-11-24T18:16:30.001Z,98188.94
2022-11-24T18:19:14.599Z,98174.78
2022-11-24T18:21:43.790Z,98174.47
2022-11-24T18:24:11.811Z,98167.09
2022-11-24T18:26:40.010Z,98162.47
2022-11-24T18:29:06.680Z,98167.09
2022-11-24T18:31:35.497Z,98170.09
2022-11-24T18:34:03.508Z,98170.34
2022-11-24T18:36:30.896Z,98167.38
2022-11-24T18:39:04.875Z,98187.25
2022-11-24T18:41:31.951Z,98175.50
2022-11-24T18:44:02.289Z,98179.56
2022-11-24T18:46:29.187Z,98186.13
2022-11-24T18:48:55.804Z,98189.63
2022-11-24T18:51:23.580Z,98190.97
2022-11-24T18:53:58.077Z,98190.97
2022-11-24T18:56:25.470Z,98194.22
2022-11-24T18:58:54.120Z,98200.75
2022-11-24T19:01:23.849Z,98207.81
2022-11-24T19:03:53.450Z,98218.72
2022-11-24T19:06:23.068Z,98225.81
2022-11-24T19:08:53.420Z,98222.28
2022-11-24T19:11:23.089Z,98222.78
2022-11-24T19:13:50.237Z,98230.16
2022-11-24T19:16:18.288Z,98233.66
2022-11-24T19:18:50.259Z,98240.72
2022-11-24T19:21:20.248Z,98249.16
2022-11-24T19:23:46.860Z,98254.06
2022-11-24T19:26:13.574Z,98247.47
2022-11-24T19:28:40.237Z,98254.28
2022-11-24T19:31:10.200Z,98262.72
2022-11-24T19:33:36.833Z,98264.88
2022-11-24T19:36:09.118Z,98253.97
2022-11-24T19:38:39.187Z,98247.44
2022-11-24T19:41:11.557Z,98246.09
2022-11-24T19:43:39.068Z,98244.72
2022-11-24T19:46:08.600Z,98236.88
2022-11-24T19:48:38.518Z,98230.59
2022-11-24T19:51:10.084Z,98222.44
2022-11-24T19:53:36.759Z,98226.56
2022-11-24T19:56:08.882Z,98208.56
2022-11-24T19:58:36.582Z,98203.72
2022-11-24T20:01:09.633Z,98195.84
2022-11-24T20:03:38.253Z,98196.66
2022-11-24T20:06:09.448Z,98204.56
2022-11-24T20:08:37.765Z,98206.75
2022-11-24T20:11:07.497Z,98192.34
2022-11-24T20:13:35.702Z,98199.13
2022-11-24T20:16:11.190Z,98190.44
2022-11-24T20:18:42.159Z,98207.59
2022-11-24T20:21:11.842Z,98207.09
2022-11-24T20:23:39.613Z,98198.63
2022-11-24T20:26:09.894Z,98205.19
2022-11-24T20:28:39.686Z,98202.47
2022-11-24T20:31:12.428Z,98200.28
2022-11-24T20:33:40.890Z,98205.50
2022-11-24T20:36:16.777Z,98215.00
2022-11-24T20:38:44.373Z,98215.03
2022-11-24T20:41:16.200Z,98209.56
2022-11-24T20:43:44.095Z,98208.47
2022-11-24T20:46:12.313Z,98193.22
2022-11-24T20:48:39.372Z,98202.50
2022-11-24T20:51:14.119Z,98175.25
2022-11-24T20:53:41.206Z,98182.31
2022-11-24T20:56:10.995Z,98179.06
2022-11-24T20:58:38.475Z,98179.84
2022-11-24T21:01:08.139Z,98178.19
2022-11-24T21:03:41.219Z,98184.44
2022-11-24T21:06:09.666Z,98180.38
2022-11-24T21:08:38.343Z,98180.06
2022-11-24T21:11:06.804Z,98180.88
2022-11-24T21:13:35.258Z,98177.34
2022-11-24T21:16:17.996Z,98173.00
2022-11-24T21:18:47.039Z,98163.75
2022-11-24T21:21:14.662Z,98173.00
2022-11-24T21:23:41.328Z,98172.41
2022-11-24T21:26:14.821Z,98173.78
2022-11-24T21:28:43.936Z,98184.41
2022-11-24T21:31:14.426Z,98184.41
2022-11-24T21:33:43.163Z,98182.78
2022-11-24T21:36:09.897Z,98166.72
2022-11-24T21:38:36.899Z,98171.06
2022-11-24T21:41:06.462Z,98178.16
2022-11-24T21:43:34.025Z,98188.22
2022-11-24T21:46:02.775Z,98189.56
2022-11-24T21:48:30.212Z,98193.66
2022-11-24T21:51:01.641Z,98199.66
2022-11-24T21:53:34.999Z,98192.59
2022-11-24T21:56:05.701Z,98169.19
2022-11-24T21:58:33.450Z,98174.09
2022-11-24T22:01:05.649Z,98178.19
2022-11-24T22:03:32.712Z,98176.56
2022-11-24T22:06:00.735Z,98187.44
2022-11-24T22:08:29.762Z,98190.19
2022-11-24T22:11:05.693Z,98195.41
2022-11-24T22:13:32.778Z,98201.38
2022-11-24T22:16:01.978Z,98205.75
2022-11-24T22:18:37.722Z,98206.34
2022-11-24T22:21:06.070Z,98206.88
2022-11-24T22:23:34.200Z,98207.97
2022-11-24T22:26:27.481Z,98214.03
2022-11-24T22:28:55.669Z,98222.75
2022-11-24T22:31:23.940Z,98229.59
2022-11-24T22:33:51.584Z,98232.31
2022-11-24T22:36:23.478Z,98247.84
2022-11-24T22:38:55.561Z,98235.84
2022-11-24T22:41:22.378Z,98232.31
2022-11-24T22:43:49.479Z,98239.66
2022-11-24T22:46:21.552Z,98245.63
2022-11-24T22:48:49.416Z,98242.91
2022-11-24T22:51:19.198Z,98247.28
2022-11-24T22:53:50.258Z,98243.19
2022-11-24T22:56:17.936Z,98242.63
2022-11-24T22:58:44.585Z,98232.81
2022-11-24T23:01:13.622Z,98226.00
2022-11-24T23:03:40.828Z,98223.81
2022-11-24T23:06:11.965Z,98234.97
2022-11-24T23:08:39.230Z,98246.69
2022-11-24T23:11:12.609Z,98249.41
2022-11-24T23:13:39.733Z,98245.59
2022-11-24T23:16:12.459Z,98247.50
2022-11-24T23:18:40.072Z,98242.59
2022-11-24T23:21:14.143Z,98264.69
2022-11-24T23:23:41.597Z,98267.97
2022-11-24T23:26:13.179Z,98281.09
2022-11-24T23:28:40.425Z,98266.38
2022-11-24T23:31:09.166Z,98270.75
2022-11-24T23:33:36.587Z,98260.41
2022-11-24T23:36:06.189Z,98248.69
2022-11-24T23:38:33.036Z,98248.97
2022-11-24T23:41:01.212Z,98260.97
2022-11-24T23:43:27.836Z,98269.69
2022-11-24T23:45:54.519Z,98280.59
2022-11-24T23:48:21.260Z,98286.06
2022-11-24T23:50:47.874Z,98298.59
2022-11-24T23:53:14.551Z,98317.94
2022-11-24T23:55:41.174Z,98316.03
2022-11-24T23:58:08.086Z,98322.84
